高知空港の過去48時間の天気

高知空港 (Kochi)

現在時刻: 9/19 08:33 JST (9/18 23:33 UTC) 以下の時間は現地時間です。

過去48時間のMETAR気象情報
時間 風向 風速(m/s) 視程 気温(℃) 湿度(%) 気圧(hPa) 天気現象
19 08:00 6 10km以上 26 61 1012
19 07:00 7 10km以上 25 65 1011
19 06:10 5 10km以上 24 69 1011
RJOK 182300Z 35012KT 9999 FEW025 26/18 Q1012
RJOK 182200Z 35013KT 9999 FEW025 25/18 Q1011
RJOK 182110Z 36009KT 9999 FEW025 24/18 Q1011 RMK 1CU025 A2986